• Join FlightAware (Why Join?)
  • Login
  • US Flag GB Flag 
10:47 EDT


 

Airport Tracker/Info


-or-


 

Live Flight TrackerFlight Track Log ✈ KAP1981 ✈ 07-May-2013 ✈ TQPF / AXA - TJSJ / SJU

Flight Track Log - Related Links

Times and Time Zones

All times are in EDT time to prevent confusion due to time zone crossing. See the KAP1981 flight status page for this flight to view local times or setup timezone preferences in your user account.

Time Position Orientation Groundspeed Altitude Reporting Facility
EDT Latitude Longitude Course Direction KTS MPH feet Rate Location/Type
11:02 18.2833 -63.8667 270° West 190 219 10,600  Level San Juan Center
11:03 18.2833 -63.9333 270° West 190 219 10,600  Level San Juan Center
11:04 18.2833 -63.9833 270° West 190 219 10,600  Level San Juan Center
11:05 18.2833 -64.0500 270° West 200 230 10,600  Level San Juan Center
11:06 18.2833 -64.1000 270° West 190 219 10,600  Level San Juan Center
11:07 18.3000 -64.1500 289° West 190 219 10,600  Level San Juan Center
11:08 18.3000 -64.2167 270° West 190 219 10,600  Level San Juan Center
11:09 18.3000 -64.2667 270° West 200 230 10,600  Level San Juan Center
11:10 18.3000 -64.3333 270° West 190 219 10,600  Level San Juan Center
11:11 18.3000 -64.3833 270° West 200 230 10,600  Level San Juan Center
11:12 18.3167 -64.4500 285° West 190 219 10,600  Level San Juan Center
11:13 18.3167 -64.5000 270° West 190 219 10,600  Level San Juan Center
11:14 18.3167 -64.5500 270° West 190 219 10,600  Level San Juan Center
11:15 18.3333 -64.6167 285° West 190 219 10,600  Level San Juan Center
11:16 18.3333 -64.6667 270° West 180 207 10,600  Level San Juan Center
11:17 18.3333 -64.7167 270° West 180 207 10,600  Level San Juan Center
11:18 18.3500 -64.7833 285° West 180 207 10,600  Level San Juan Center
11:19 18.3500 -64.8333 270° West 190 219 10,600 -60 Level San Juan Center
11:20 18.3500 -64.8833 270° West 180 207 10,500 -120 Descending San Juan Center
11:22 18.3568 -64.9704 275° West  Level FlightAware Approximate
11:29 18.3859 -65.3475 275° West  Level FlightAware Approximate
11:30 18.3900 -65.4014 275° West  Level FlightAware Approximate
11:31 18.3941 -65.4552 275° West  Level FlightAware Approximate
11:32 18.3982 -65.5091 275° West  Level FlightAware Approximate
11:33 18.4000 -65.5631 270° West  Level FlightAware Approximate
11:34 18.4000 -65.6171 274° West  Level FlightAware Approximate
11:35 18.4032 -65.6711 274° West  Level FlightAware Approximate
11:36 18.4064 -65.7250 274° West  Level FlightAware Approximate
11:37 18.4096 -65.7790 274° West  Level FlightAware Approximate
11:38 18.4128 -65.8329 274° West  Level FlightAware Approximate
11:39 18.4159 -65.8869 274° West  Level FlightAware Approximate
11:40 18.4333 -65.9334 270° West  Level FlightAware Approximate
11:41 18.4333 -65.9874 270° West  Level FlightAware Approximate
11:42 18.4333 -66.0000 270° West  Level FlightAware Approximate
11:43 18.4393 -66.0020 270° West  Level Estimated
11:44 18.4333 -66.0000 270° West  Level FlightAware Approximate
11:45 18.4393 -66.0020 270° West  Level Estimated
11:46 18.4333 -66.0000 270° West  Level FlightAware Approximate
11:47 18.4393 -66.0020 270° West  Level Estimated
11:48 18.4333 -66.0000 270° West  Level FlightAware Approximate
11:49 18.4393 -66.0020 270° West  Level Estimated
11:50 18.4333 -66.0000 270° West  Level FlightAware Approximate
11:51 18.4393 -66.0020 270° West  Level Estimated
11:52 18.4333 -66.0000 270° West  Level FlightAware Approximate
11:53 18.4393 -66.0020 270° West  Level Estimated
11:54 18.4333 -66.0000 270° West  Level FlightAware Approximate
11:55 18.4393 -66.0020 270° West  Level Estimated
11:56 18.4333 -66.0000 270° West  Level FlightAware Approximate
11:57 18.4393 -66.0020 270° West  Level Estimated
11:58 18.4333 -66.0000 270° West  Level FlightAware Approximate
11:59 18.4393 -66.0020 270° West  Level Estimated
12:00 18.4333 -66.0000 270° West  Level FlightAware Approximate
12:01 18.4393 -66.0020 270° West  Level Estimated
12:02 18.4333 -66.0000 270° West  Level FlightAware Approximate
12:03 18.4393 -66.0020 270° West  Level Estimated
12:04 18.4333 -66.0000 270° West  Level FlightAware Approximate
12:05 18.4393 -66.0020 270° West  Level Estimated
12:06 18.4333 -66.0000 270° West  Level FlightAware Approximate
12:07 18.4393 -66.0020 270° West  Level Estimated
12:08 18.4333 -66.0000 270° West  Level FlightAware Approximate
12:09 18.4393 -66.0020 270° West  Level Estimated
12:10 18.4333 -66.0000 270° West  Level FlightAware Approximate
12:11 18.4393 -66.0020 270° West  Level Estimated
12:12 18.4333 -66.0000 270° West  Level FlightAware Approximate
12:13 18.4393 -66.0020 270° West  Level Estimated